Time;durP1;ratioP1;P1;durP2;ratioP2;P2;SDS_P1;SDS_P2;PMS_P1;PMS_P2;Temp;Humidity;BMP_temperature;BMP_pressure;BME280_temperature;BME280_humidity;BME280_pressure;Samples;Min_cycle;Max_cycle;Signal;HPM_P1;HPM_P2
2022/09/22 00:00:41;;;;;;;7.75;6.93;;;;;;;11.26;64.80;102391.31;5014898;28;20030;-87
2022/09/22 00:03:07;;;;;;;10.05;7.10;;;;;;;11.32;63.95;102383.59;4997551;28;20029;-87
2022/09/22 00:05:32;;;;;;;8.73;7.00;;;;;;;11.30;63.86;102366.75;5014849;28;20030;-87
2022/09/22 00:08:00;;;;;;;9.18;6.95;;;;;;;11.34;64.01;102368.66;5015323;28;20033;-88
2022/09/22 00:10:27;;;;;;;8.43;6.75;;;;;;;11.36;63.61;102382.84;5014253;28;20470;-88
2022/09/22 00:12:53;;;;;;;7.63;6.80;;;;;;;11.39;63.65;102387.31;5015273;28;20029;-87
2022/09/22 00:15:19;;;;;;;10.02;7.57;;;;;;;11.41;63.81;102383.91;5015860;28;20053;-88
2022/09/22 00:17:45;;;;;;;9.90;7.53;;;;;;;11.44;63.28;102373.41;4997363;28;20474;-88
2022/09/22 00:20:13;;;;;;;10.95;7.60;;;;;;;11.52;63.42;102376.31;5014639;28;20493;-88
2022/09/22 00:22:40;;;;;;;11.90;7.93;;;;;;;11.45;63.20;102372.56;5014087;28;20025;-90
2022/09/22 00:25:07;;;;;;;11.75;8.07;;;;;;;11.38;62.73;102373.19;5014318;28;20064;-89
2022/09/22 00:27:33;;;;;;;8.65;7.72;;;;;;;11.36;63.51;102366.97;5013889;28;20033;-90
2022/09/22 00:29:59;;;;;;;10.85;8.77;;;;;;;11.48;63.06;102385.91;5014222;28;20034;-88
2022/09/22 00:32:24;;;;;;;10.45;8.75;;;;;;;11.47;62.97;102384.06;4996237;28;20099;-87
2022/09/22 00:34:50;;;;;;;12.13;9.07;;;;;;;11.45;62.47;102388.44;5013684;28;20112;-87
2022/09/22 00:37:15;;;;;;;11.77;9.68;;;;;;;11.30;62.70;102372.06;5013758;28;20382;-87
2022/09/22 00:39:42;;;;;;;15.25;10.80;;;;;;;11.14;63.48;102372.44;4980471;28;20454;-87
2022/09/22 00:42:11;;;;;;;14.25;9.95;;;;;;;11.06;63.89;102361.59;5014269;28;20104;-86
2022/09/22 00:44:41;;;;;;;12.57;9.48;;;;;;;11.10;63.29;102375.81;4980295;28;20117;-86
2022/09/22 00:47:31;;;;;;;12.90;9.90;;;;;;;11.02;63.23;102372.91;4996162;28;20125;-88
2022/09/22 00:50:15;;;;;;;13.55;9.90;;;;;;;11.01;63.39;102379.06;4996336;28;20033;-87
2022/09/22 00:52:52;;;;;;;14.85;9.77;;;;;;;10.93;63.33;102378.81;5014051;28;20034;-87
2022/09/22 00:55:23;;;;;;;12.38;9.65;;;;;;;10.85;64.04;102382.91;4997099;28;20443;-86
2022/09/22 00:57:52;;;;;;;11.38;9.18;;;;;;;10.78;64.21;102372.97;5014430;28;20034;-87
2022/09/22 01:00:18;;;;;;;14.60;10.27;;;;;;;10.70;64.32;102363.88;5013845;28;20030;-86
2022/09/22 01:02:50;;;;;;;11.93;9.50;;;;;;;10.69;64.39;102354.16;4996589;28;20088;-86
2022/09/22 01:05:17;;;;;;;13.45;9.95;;;;;;;10.77;64.38;102369.44;5013747;28;20080;-86
2022/09/22 01:07:43;;;;;;;12.90;10.05;;;;;;;10.73;64.43;102356.06;4996431;28;20048;-87
2022/09/22 01:10:10;;;;;;;13.88;9.00;;;;;;;10.58;65.01;102335.28;4998181;28;20091;-86
2022/09/22 01:12:40;;;;;;;10.65;8.82;;;;;;;10.52;65.50;102343.00;5018260;28;20038;-86
2022/09/22 01:15:20;;;;;;;11.27;9.32;;;;;;;10.49;65.52;102359.66;5000912;28;20362;-86
2022/09/22 01:17:55;;;;;;;11.77;9.48;;;;;;;10.40;66.07;102361.06;5000525;28;20036;-87
2022/09/22 01:21:00;;;;;;;11.68;9.18;;;;;;;10.24;65.84;102355.25;5000326;28;20466;-87
2022/09/22 01:23:44;;;;;;;14.32;8.90;;;;;;;10.21;66.03;102359.47;5016340;28;20108;-87
2022/09/22 01:26:25;;;;;;;11.85;8.95;;;;;;;10.34;65.18;102360.84;4999697;28;20073;-86
2022/09/22 01:29:26;;;;;;;11.68;9.20;;;;;;;10.41;64.71;102342.63;4999756;28;20030;-87
2022/09/22 01:32:26;;;;;;;11.93;9.30;;;;;;;10.48;64.32;102349.91;4999790;28;20116;-87
2022/09/22 01:34:57;;;;;;;12.65;9.48;;;;;;;10.50;64.60;102344.69;4984280;28;20449;-88
2022/09/22 01:37:32;;;;;;;11.80;9.02;;;;;;;10.39;64.00;102332.84;4999708;28;20026;-87
2022/09/22 01:40:05;;;;;;;11.80;9.68;;;;;;;10.39;64.37;102332.84;5017472;28;20038;-87
2022/09/22 01:42:44;;;;;;;10.85;9.60;;;;;;;10.40;64.70;102340.81;4999802;28;20453;-88
2022/09/22 01:45:16;;;;;;;13.52;9.93;;;;;;;10.32;65.10;102334.38;5000108;28;20038;-86
2022/09/22 01:47:52;;;;;;;10.90;9.13;;;;;;;10.32;64.57;102329.09;4999554;28;20022;-86
2022/09/22 01:50:28;;;;;;;14.32;9.55;;;;;;;10.28;64.86;102333.38;4999549;28;20470;-86
2022/09/22 01:53:03;;;;;;;10.68;9.57;;;;;;;10.22;65.82;102327.81;4999143;28;20034;-86
2022/09/22 01:55:37;;;;;;;11.20;9.55;;;;;;;10.17;65.23;102315.28;5016858;28;20033;-86
2022/09/22 01:58:08;;;;;;;13.77;10.55;;;;;;;10.15;65.18;102317.91;5017773;28;20040;-86
2022/09/22 02:00:38;;;;;;;17.05;10.38;;;;;;;10.17;65.43;102313.56;4999207;28;20050;-87
2022/09/22 02:03:11;;;;;;;12.55;9.95;;;;;;;10.19;65.22;102314.53;4999018;28;20029;-86
2022/09/22 02:05:42;;;;;;;12.00;10.20;;;;;;;10.21;65.02;102327.78;5017264;28;20040;-87
2022/09/22 02:08:17;;;;;;;11.35;10.13;;;;;;;10.06;65.38;102317.53;5016957;28;20025;-86
2022/09/22 02:10:46;;;;;;;13.75;9.48;;;;;;;9.92;65.62;102309.09;5016587;28;20040;-87
2022/09/22 02:13:13;;;;;;;12.15;9.82;;;;;;;9.77;65.99;102306.81;5015849;28;20034;-86
2022/09/22 02:16:00;;;;;;;15.20;9.77;;;;;;;9.72;66.64;102300.47;5016434;28;20022;-87
2022/09/22 02:18:34;;;;;;;12.35;10.05;;;;;;;9.73;66.34;102301.38;5016963;28;20030;-86
2022/09/22 02:21:03;;;;;;;12.98;9.20;;;;;;;9.84;65.95;102307.94;4998622;28;20026;-87
2022/09/22 02:23:33;;;;;;;13.95;9.75;;;;;;;9.76;66.39;102309.38;5016625;28;20034;-87
2022/09/22 02:26:00;;;;;;;12.18;9.20;;;;;;;9.75;65.93;102307.59;4979327;28;20119;-86
2022/09/22 02:28:28;;;;;;;12.07;9.27;;;;;;;9.77;65.83;102306.81;4977864;28;20027;-86
2022/09/22 02:30:57;;;;;;;11.68;9.05;;;;;;;9.76;65.71;102298.81;4977396;28;20031;-86
2022/09/22 02:33:26;;;;;;;13.07;9.55;;;;;;;9.76;65.41;102294.47;4977146;28;20121;-86
2022/09/22 02:36:10;;;;;;;12.60;9.15;;;;;;;9.81;64.87;102299.00;4992462;28;20031;-86
2022/09/22 02:39:01;;;;;;;12.02;9.75;;;;;;;9.66;65.87;102287.03;4977345;28;20035;-86
2022/09/22 02:41:38;;;;;;;12.25;9.57;;;;;;;9.64;66.14;102291.38;4976871;28;20368;-86
2022/09/22 02:44:12;;;;;;;12.73;9.65;;;;;;;9.58;66.20;102285.84;4977268;28;20034;-86
2022/09/22 02:46:49;;;;;;;11.95;9.48;;;;;;;9.62;65.94;102284.22;4992575;28;20101;-87
2022/09/22 02:49:17;;;;;;;11.98;9.27;;;;;;;9.54;66.01;102270.72;4976899;28;20468;-86
2022/09/22 02:51:45;;;;;;;10.52;9.05;;;;;;;9.53;65.89;102277.75;4975642;28;20038;-86
2022/09/22 02:54:13;;;;;;;14.57;9.45;;;;;;;9.60;65.96;102289.44;4977341;28;20030;-86
2022/09/22 02:56:44;;;;;;;11.43;8.90;;;;;;;9.54;66.00;102295.38;4975834;28;20116;-87
2022/09/22 02:59:10;;;;;;;10.85;9.27;;;;;;;9.48;65.54;102273.16;4976718;28;20027;-86
2022/09/22 03:01:36;;;;;;;12.15;9.18;;;;;;;9.50;65.51;102279.38;4976681;28;20042;-87
2022/09/22 03:04:03;;;;;;;11.57;9.50;;;;;;;9.52;66.23;102265.41;4976157;28;20464;-87
2022/09/22 03:06:30;;;;;;;18.40;9.18;;;;;;;9.65;65.43;102277.31;4976328;28;20085;-87
2022/09/22 03:08:56;;;;;;;10.52;9.18;;;;;;;9.64;65.16;102280.81;4975368;28;20058;-86
2022/09/22 03:11:22;;;;;;;10.85;9.00;;;;;;;9.53;65.42;102275.09;4976777;28;20118;-88
2022/09/22 03:13:47;;;;;;;9.85;8.85;;;;;;;9.54;65.65;102279.53;4976956;28;20030;-88
2022/09/22 03:16:13;;;;;;;12.93;8.90;;;;;;;9.44;65.68;102276.50;4974913;28;20489;-88
2022/09/22 03:18:40;;;;;;;13.20;9.00;;;;;;;9.40;65.10;102271.94;4991535;28;20030;-87
2022/09/22 03:21:06;;;;;;;11.07;8.68;;;;;;;9.42;65.17;102281.75;4991201;28;20042;-86
2022/09/22 03:23:32;;;;;;;12.80;8.65;;;;;;;9.33;65.64;102273.44;4976251;28;20384;-87
2022/09/22 03:25:57;;;;;;;9.90;8.85;;;;;;;9.37;65.01;102278.00;4974923;28;20408;-86
2022/09/22 03:28:23;;;;;;;10.07;8.82;;;;;;;9.34;65.53;102275.25;4976150;28;20035;-86
2022/09/22 03:30:48;;;;;;;13.35;9.20;;;;;;;9.31;65.43;102279.50;4976140;28;20089;-87
2022/09/22 03:33:14;;;;;;;12.95;9.63;;;;;;;9.28;65.66;102265.34;4974142;28;20388;-87
2022/09/22 03:35:42;;;;;;;13.40;10.23;;;;;;;9.16;65.93;102266.59;4975366;28;20416;-86
2022/09/22 03:38:07;;;;;;;13.60;9.77;;;;;;;9.03;66.05;102260.84;4975984;28;20033;-87
2022/09/22 03:40:36;;;;;;;13.57;9.70;;;;;;;9.07;66.61;102259.25;4990904;28;20030;-86
2022/09/22 03:43:01;;;;;;;10.63;9.43;;;;;;;9.10;66.65;102263.75;4975530;28;20394;-86
2022/09/22 03:45:27;;;;;;;11.02;9.52;;;;;;;8.94;67.64;102251.69;4958655;28;20039;-86
2022/09/22 03:47:53;;;;;;;14.18;9.00;;;;;;;8.98;67.10;102266.78;4974759;28;20058;-87
2022/09/22 03:50:19;;;;;;;11.07;8.98;;;;;;;8.90;67.27;102258.56;4974548;28;20035;-87
2022/09/22 03:52:44;;;;;;;10.88;8.70;;;;;;;8.94;66.66;102264.88;4974441;28;20111;-87
2022/09/22 03:55:10;;;;;;;10.35;8.27;;;;;;;8.95;66.37;102262.31;4975953;28;20384;-86
2022/09/22 03:57:35;;;;;;;9.60;8.07;;;;;;;9.00;66.37;102263.38;4958191;28;20038;-86
2022/09/22 04:00:02;;;;;;;10.38;8.30;;;;;;;8.96;66.29;102256.19;4990719;28;20031;-86
2022/09/22 04:02:28;;;;;;;10.27;8.38;;;;;;;9.08;66.42;102261.06;4990478;28;20031;-86
2022/09/22 04:04:53;;;;;;;11.80;7.95;;;;;;;9.08;65.90;102262.78;4990722;28;20042;-86
2022/09/22 04:07:18;;;;;;;10.15;8.23;;;;;;;9.09;65.71;102267.22;4974211;28;20037;-87
2022/09/22 04:09:44;;;;;;;9.05;7.95;;;;;;;9.02;66.17;102264.31;4973909;28;20023;-88
2022/09/22 04:12:09;;;;;;;8.77;7.28;;;;;;;8.91;66.05;102259.50;4990955;28;20027;-86
2022/09/22 04:14:35;;;;;;;8.35;7.47;;;;;;;8.78;66.53;102240.53;4958398;28;20054;-87
2022/09/22 04:17:04;;;;;;;10.23;7.53;;;;;;;8.79;66.77;102249.34;4975277;28;20027;-86
2022/09/22 04:19:34;;;;;;;9.00;7.68;;;;;;;8.74;66.97;102240.34;4975563;28;20034;-87
2022/09/22 04:22:02;;;;;;;8.60;7.80;;;;;;;8.82;66.94;102265.25;4975391;28;20486;-86
2022/09/22 04:24:27;;;;;;;8.25;6.78;;;;;;;8.80;66.44;102237.06;4990039;28;20087;-87
2022/09/22 04:26:53;;;;;;;7.88;6.68;;;;;;;8.92;66.09;102261.28;4974099;28;20109;-87
2022/09/22 04:29:18;;;;;;;10.27;6.50;;;;;;;8.87;65.82;102244.38;4974503;28;20031;-86
2022/09/22 04:31:44;;;;;;;11.35;7.05;;;;;;;8.78;66.45;102234.38;4973937;28;20529;-87
2022/09/22 04:34:09;;;;;;;8.18;7.07;;;;;;;8.78;66.28;102239.66;4973813;28;20073;-87
2022/09/22 04:36:35;;;;;;;9.57;7.25;;;;;;;8.84;66.16;102237.25;4974763;28;20038;-87
2022/09/22 04:39:03;;;;;;;8.88;7.00;;;;;;;8.89;66.29;102238.31;4973473;28;20030;-87
2022/09/22 04:41:29;;;;;;;8.23;7.07;;;;;;;8.91;66.12;102249.84;4974803;28;20038;-87
2022/09/22 04:43:55;;;;;;;11.15;7.00;;;;;;;8.82;66.05;102243.28;4989672;28;20499;-87
2022/09/22 04:46:20;;;;;;;8.57;7.68;;;;;;;8.68;66.97;102235.72;4974983;28;20062;-87
2022/09/22 04:48:48;;;;;;;11.60;7.85;;;;;;;8.71;66.41;102254.28;4990027;28;20121;-87
2022/09/22 04:51:16;;;;;;;11.20;8.27;;;;;;;8.64;67.32;102246.06;4989783;28;20051;-88
2022/09/22 04:53:41;;;;;;;11.23;8.23;;;;;;;8.62;67.63;102230.22;4989897;28;20494;-87
2022/09/22 04:56:07;;;;;;;9.93;7.70;;;;;;;8.61;67.03;102225.78;4989810;28;20042;-87
2022/09/22 04:58:32;;;;;;;9.02;8.00;;;;;;;8.65;66.17;102237.31;4974111;28;20031;-87
2022/09/22 05:01:05;;;;;;;10.48;8.27;;;;;;;8.55;66.63;102230.78;4974627;28;20034;-86
2022/09/22 05:03:31;;;;;;;9.40;8.18;;;;;;;8.58;66.69;102240.56;4973655;28;20031;-89
2022/09/22 05:05:57;;;;;;;10.07;8.07;;;;;;;8.54;67.10;102236.91;4973854;28;20034;-88
2022/09/22 05:08:22;;;;;;;9.45;7.65;;;;;;;8.55;66.75;102233.41;4975076;28;20031;-88
2022/09/22 05:10:48;;;;;;;10.27;7.60;;;;;;;8.59;67.07;102239.72;4973375;28;20039;-88
2022/09/22 05:13:14;;;;;;;9.40;8.30;;;;;;;8.59;66.93;102239.72;4974772;28;20114;-88
2022/09/22 05:15:40;;;;;;;9.48;7.82;;;;;;;8.56;66.46;102235.22;4989347;28;20471;-87
2022/09/22 05:18:06;;;;;;;10.45;8.38;;;;;;;8.51;66.27;102242.94;4973509;28;20505;-87
2022/09/22 05:20:31;;;;;;;13.18;8.68;;;;;;;8.53;67.16;102250.91;4973190;28;20035;-86
2022/09/22 05:22:57;;;;;;;12.35;7.90;;;;;;;8.43;66.52;102236.44;4973089;28;20062;-87
2022/09/22 05:25:23;;;;;;;11.77;8.25;;;;;;;8.37;66.94;102233.56;4996706;28;20052;-86
2022/09/22 05:27:50;;;;;;;12.38;9.10;;;;;;;8.45;67.69;102247.06;5013547;28;20041;-88
2022/09/22 05:30:17;;;;;;;11.73;8.70;;;;;;;8.45;67.09;102260.22;5013223;28;20030;-88
2022/09/22 05:32:44;;;;;;;11.88;9.25;;;;;;;8.39;67.18;102247.69;5013784;28;20113;-87
2022/09/22 05:35:11;;;;;;;13.10;8.77;;;;;;;8.39;66.68;102239.78;4996586;28;20096;-88
2022/09/22 05:37:36;;;;;;;11.35;8.60;;;;;;;8.48;67.28;102257.72;5013492;28;20022;-88
2022/09/22 05:40:03;;;;;;;10.13;8.48;;;;;;;8.44;66.83;102247.91;4996264;28;20034;-87
2022/09/22 05:42:28;;;;;;;13.82;8.70;;;;;;;8.45;66.52;102253.22;5013115;28;20045;-87
2022/09/22 05:44:54;;;;;;;10.90;8.98;;;;;;;8.42;67.30;102255.72;4995772;28;20148;-87
2022/09/22 05:47:19;;;;;;;10.68;9.18;;;;;;;8.40;67.25;102243.34;5013105;28;20083;-87
2022/09/22 05:49:45;;;;;;;11.00;9.27;;;;;;;8.48;66.65;102252.47;4996015;28;20037;-88
2022/09/22 05:52:13;;;;;;;11.63;9.77;;;;;;;8.51;67.33;102258.72;4995495;28;20042;-87
2022/09/22 05:54:41;;;;;;;12.68;9.60;;;;;;;8.55;67.55;102248.34;4995702;28;20052;-87
2022/09/22 05:57:07;;;;;;;15.45;10.52;;;;;;;8.72;67.18;102266.63;4982433;28;20034;-87
2022/09/22 05:59:32;;;;;;;11.95;9.55;;;;;;;8.69;67.43;102253.34;5016495;28;20037;-87
2022/09/22 06:01:58;;;;;;;15.05;10.23;;;;;;;8.80;67.10;102256.41;5016544;28;20057;-87
2022/09/22 06:04:23;;;;;;;21.73;13.85;;;;;;;8.96;67.32;102263.19;4999023;28;20108;-88
2022/09/22 06:06:49;;;;;;;22.45;15.23;;;;;;;9.19;67.47;102272.91;5016962;28;20038;-88
2022/09/22 06:09:23;;;;;;;18.88;11.27;;;;;;;9.38;67.44;102273.63;4998809;28;20033;-89
2022/09/22 06:11:49;;;;;;;12.88;9.65;;;;;;;9.48;66.78;102267.88;4984242;28;20034;-91
2022/09/22 06:14:14;;;;;;;12.27;9.43;;;;;;;9.65;66.34;102274.69;4999028;28;20026;-89
2022/09/22 06:16:42;;;;;;;13.90;9.32;;;;;;;9.78;66.80;102266.38;4998876;28;20453;-88
2022/09/22 06:19:11;;;;;;;15.88;9.93;;;;;;;9.94;67.54;102262.56;5016086;28;20025;-88
2022/09/22 06:21:36;;;;;;;13.68;9.35;;;;;;;10.21;67.42;102275.84;5016355;28;20030;-88
2022/09/22 06:24:01;;;;;;;13.73;9.65;;;;;;;10.35;67.36;102267.53;4998306;28;20045;-88
2022/09/22 06:26:28;;;;;;;14.35;9.68;;;;;;;10.52;66.54;102259.31;5015117;28;20046;-88
2022/09/22 06:28:54;;;;;;;12.07;9.40;;;;;;;10.70;66.65;102259.03;4998775;28;20053;-88
2022/09/22 06:31:21;;;;;;;14.95;9.60;;;;;;;10.81;66.35;102248.81;5015950;28;20025;-88
2022/09/22 06:33:47;;;;;;;12.82;9.93;;;;;;;10.97;66.38;102247.56;4998788;28;20136;-88
2022/09/22 06:36:19;;;;;;;11.88;9.65;;;;;;;11.22;66.48;102263.34;5016372;28;20462;-88
2022/09/22 06:38:45;;;;;;;17.60;9.85;;;;;;;11.28;66.23;102246.75;5016923;28;20033;-87
2022/09/22 06:41:10;;;;;;;13.43;9.88;;;;;;;11.45;66.37;102258.75;4998270;28;20520;-88
2022/09/22 06:43:36;;;;;;;12.85;9.35;;;;;;;11.54;66.06;102251.06;5015888;28;20036;-88
2022/09/22 06:46:02;;;;;;;13.02;9.82;;;;;;;11.68;65.99;102253.22;4998546;28;20390;-88
2022/09/22 06:48:30;;;;;;;14.38;10.45;;;;;;;11.73;66.58;102248.94;4998706;28;20034;-88
2022/09/22 06:50:56;;;;;;;13.50;10.13;;;;;;;11.83;65.97;102261.66;5014669;28;20057;-89
2022/09/22 06:53:23;;;;;;;14.15;9.60;;;;;;;11.92;65.71;102253.94;5015875;28;20061;-87
2022/09/22 06:55:48;;;;;;;19.60;10.50;;;;;;;12.03;65.70;102249.84;4998393;28;20466;-88
2022/09/22 06:58:14;;;;;;;17.38;11.88;;;;;;;12.35;65.16;102257.75;5015450;28;20056;-89
2022/09/22 07:00:42;;;;;;;12.98;10.57;;;;;;;12.51;65.47;102256.41;5015979;28;20037;-88
2022/09/22 07:03:16;;;;;;;16.48;10.70;;;;;;;12.82;64.78;102260.69;4998163;28;20386;-88
2022/09/22 07:05:53;;;;;;;15.90;10.82;;;;;;;12.77;64.62;102239.38;4997985;28;20026;-88
2022/09/22 07:08:22;;;;;;;16.05;10.80;;;;;;;13.07;63.85;102253.34;4998836;28;20064;-89
2022/09/22 07:11:06;;;;;;;14.32;10.35;;;;;;;13.24;63.33;102244.03;5015251;28;20030;-89
2022/09/22 07:13:46;;;;;;;19.08;10.30;;;;;;;13.46;63.32;102240.97;4983724;28;20034;-89
2022/09/22 07:16:17;;;;;;;14.77;10.82;;;;;;;13.72;62.57;102251.22;4998805;28;20064;-89
2022/09/22 07:18:46;;;;;;;15.20;10.82;;;;;;;13.84;62.26;102250.59;5015122;28;20030;-89
2022/09/22 07:21:21;;;;;;;17.40;10.55;;;;;;;14.02;62.33;102246.53;4997963;28;20128;-89
2022/09/22 07:23:52;;;;;;;13.63;10.40;;;;;;;14.21;62.21;102229.13;4998361;28;20037;-89
2022/09/22 07:26:25;;;;;;;16.45;11.05;;;;;;;14.45;61.45;102244.63;5015624;28;20054;-89
2022/09/22 07:28:58;;;;;;;;;;;;;;;14.53;61.27;102253.69;5016264;28;20037;-89
2022/09/22 07:31:35;;;;;;;14.85;10.25;;;;;;;14.30;61.38;102223.09;4998209;28;20004;-89
2022/09/22 07:34:03;;;;;;;18.20;11.48;;;;;;;14.22;62.76;102228.28;5015113;28;20382;-88
2022/09/22 07:36:31;;;;;;;18.42;11.05;;;;;;;14.32;62.04;102231.09;5014478;28;20068;-89
2022/09/22 07:39:02;;;;;;;15.25;10.75;;;;;;;14.60;61.14;102230.72;5002451;28;20347;-89
2022/09/22 07:41:41;;;;;;;;;;;;;;;;;;;;;
2022/09/22 07:47:03;;;;;;;14.90;10.60;;;;;;;15.40;59.26;102229.25;5020897;28;20128;-89
2022/09/22 07:49:29;;;;;;;;;;;;;;;15.60;59.79;102259.69;4998794;28;20450;-88
2022/09/22 07:51:57;;;;;;;12.63;9.63;;;;;;;15.84;57.77;102237.78;4996922;28;19910;-89
2022/09/22 07:54:27;;;;;;;14.23;9.70;;;;;;;15.90;56.90;102237.00;5014467;28;20034;-88
2022/09/22 07:57:05;;;;;;;13.43;9.38;;;;;;;16.17;56.52;102236.38;4997521;28;20030;-89
2022/09/22 07:59:33;;;;;;;12.40;9.57;;;;;;;16.55;56.69;102241.19;4997740;28;20038;-89
2022/09/22 08:02:00;;;;;;;20.05;9.30;;;;;;;17.11;55.12;102246.06;5014673;28;20037;-89
2022/09/22 08:04:27;;;;;;;14.02;9.52;;;;;;;17.40;54.35;102239.13;5014594;28;20026;-89
2022/09/22 08:06:56;;;;;;;13.77;9.32;;;;;;;17.60;53.10;102225.84;4996839;28;20076;-89
2022/09/22 08:09:24;;;;;;;12.48;8.95;;;;;;;17.87;51.76;102238.44;5014734;28;20030;-89
2022/09/22 08:11:56;;;;;;;11.07;8.70;;;;;;;18.02;52.70;102221.53;5014201;28;20033;-89
2022/09/22 08:14:22;;;;;;;11.68;9.10;;;;;;;18.17;51.57;102218.00;4996474;28;20030;-88
2022/09/22 08:16:50;;;;;;;15.27;8.40;;;;;;;18.45;50.85;102224.25;4996668;28;20029;-89
2022/09/22 08:19:21;;;;;;;13.82;9.40;;;;;;;18.29;50.83;102219.81;4996548;28;20068;-89
2022/09/22 08:21:48;;;;;;;14.75;8.13;;;;;;;18.61;50.16;102220.69;5014280;28;20125;-89
2022/09/22 08:24:19;;;;;;;12.82;8.65;;;;;;;18.86;49.90;102229.63;4997338;28;20051;-89
2022/09/22 08:26:48;;;;;;;10.77;8.30;;;;;;;19.26;49.13;102221.47;5014253;28;20116;-89
2022/09/22 08:29:14;;;;;;;13.02;8.23;;;;;;;19.61;48.89;102221.38;4996578;28;20036;-89
2022/09/22 08:31:40;;;;;;;14.05;8.23;;;;;;;19.66;48.17;102213.34;5014255;28;20105;-89
2022/09/22 08:34:10;;;;;;;10.55;8.02;;;;;;;19.70;48.02;102202.56;4996681;28;20056;-88
2022/09/22 08:36:36;;;;;;;11.18;7.45;;;;;;;19.97;47.33;102203.31;4996374;28;20046;-89
2022/09/22 08:39:07;;;;;;;10.88;7.65;;;;;;;20.13;46.06;102206.78;4996418;28;20041;-89
2022/09/22 08:42:04;;;;;;;15.60;8.13;;;;;;;20.23;45.83;102220.13;4996276;28;20065;-90
2022/09/22 08:45:09;;;;;;;12.77;7.68;;;;;;;20.46;48.05;102214.56;4996773;28;20363;-89
2022/09/22 08:53:50;;;;;;;13.30;7.80;;;;;;;20.62;45.41;102225.22;5014185;28;20053;-91
2022/09/22 08:56:47;;;;;;;13.65;7.60;;;;;;;20.82;45.61;102222.34;4997164;28;20121;-90
2022/09/22 08:59:38;;;;;;;;;;;;;;;;;;;;;
2022/09/22 09:02:43;;;;;;;12.45;7.45;;;;;;;21.06;44.86;102222.06;5015863;28;20118;-93
2022/09/22 09:05:27;;;;;;;14.50;7.30;;;;;;;21.13;44.47;102222.91;5015118;28;20121;-95
2022/09/22 09:08:05;;;;;;;11.23;7.50;;;;;;;20.81;44.41;102228.59;5014482;28;20033;-88
2022/09/22 09:10:54;;;;;;;9.80;6.90;;;;;;;21.02;44.81;102215.84;4996336;28;20034;-86
2022/09/22 09:13:43;;;;;;;14.82;7.00;;;;;;;21.36;44.30;102236.13;5014280;28;20367;-90
2022/09/22 09:16:37;;;;;;;9.93;6.72;;;;;;;21.72;43.33;102230.28;4984003;28;20555;-87
2022/09/22 09:19:11;;;;;;;9.77;7.10;;;;;;;21.97;44.55;102222.75;5013824;28;20038;-89
2022/09/22 09:21:42;;;;;;;9.25;6.65;;;;;;;22.23;40.63;102229.59;5013671;28;20060;-89
2022/09/22 09:24:30;;;;;;;11.23;6.80;;;;;;;22.35;41.25;102221.28;5013562;28;20049;-88
2022/09/22 09:27:03;;;;;;;11.57;6.70;;;;;;;22.55;42.33;102222.78;5013757;28;20065;-86
2022/09/22 09:29:32;;;;;;;11.60;6.13;;;;;;;22.86;40.68;102215.91;5014229;28;20034;-85
2022/09/22 09:32:01;;;;;;;10.13;5.88;;;;;;;22.65;39.11;102219.00;5017102;28;20076;-85
2022/09/22 09:34:31;;;;;;;11.85;6.40;;;;;;;22.49;39.41;102221.97;5017327;28;20381;-90
2022/09/22 09:37:12;;;;;;;8.80;6.32;;;;;;;22.37;40.31;102219.47;5017296;28;20485;-91
2022/09/22 09:39:39;;;;;;;9.45;6.00;;;;;;;22.46;39.92;102216.63;5017398;28;20504;-88
2022/09/22 09:42:27;;;;;;;14.30;6.20;;;;;;;22.60;41.14;102210.09;5017386;28;20409;-91
2022/09/22 09:44:54;;;;;;;8.05;5.43;;;;;;;22.72;38.47;102224.25;4999695;28;20030;-90
2022/09/22 09:47:39;;;;;;;9.95;5.70;;;;;;;22.82;39.01;102211.50;4999625;28;20060;-92
2022/09/22 09:50:05;;;;;;;7.93;5.43;;;;;;;23.09;38.87;102211.94;5017158;28;20026;-91
2022/09/22 09:52:41;;;;;;;8.35;5.80;;;;;;;23.28;38.68;102210.63;5017054;28;20037;-95
2022/09/22 09:55:24;;;;;;;6.95;5.30;;;;;;;23.22;37.98;102208.97;4999688;28;20034;-95
2022/09/22 09:58:05;;;;;;;7.32;5.28;;;;;;;22.33;39.15;102209.66;4999964;28;20026;-95
2022/09/22 10:00:30;;;;;;;8.38;5.47;;;;;;;22.27;39.23;102207.09;5017511;28;20109;-92
2022/09/22 10:03:20;;;;;;;7.93;5.40;;;;;;;22.45;38.31;102211.28;5017720;28;20066;-92
2022/09/22 10:06:01;;;;;;;12.48;5.65;;;;;;;22.47;39.18;102202.22;5016600;28;20022;-95
2022/09/22 10:08:42;;;;;;;6.07;5.03;;;;;;;22.54;38.01;102189.56;4999550;28;20037;-95
2022/09/22 10:11:13;;;;;;;7.25;4.75;;;;;;;22.86;36.71;102183.56;4999083;28;20030;-95
2022/09/22 10:13:43;;;;;;;8.38;5.30;;;;;;;22.90;36.95;102187.13;4998983;28;20026;-95
2022/09/22 10:16:27;;;;;;;7.90;4.93;;;;;;;23.36;37.02;102184.41;5016436;28;20030;-95
2022/09/22 10:18:58;;;;;;;7.40;4.90;;;;;;;23.43;37.40;102201.34;4999852;28;20057;-95
2022/09/22 10:21:25;;;;;;;6.68;4.45;;;;;;;22.93;37.19;102179.88;4998944;28;20100;-94
2022/09/22 10:23:56;;;;;;;8.40;4.80;;;;;;;22.95;37.54;102191.53;5016507;28;20030;-94
2022/09/22 10:26:27;;;;;;;6.80;4.40;;;;;;;23.01;35.56;102163.56;5016091;28;20045;-95
2022/09/22 10:29:18;;;;;;;7.40;4.10;;;;;;;23.34;37.16;102186.25;5016329;28;20410;-94
2022/09/22 10:32:14;;;;;;;6.20;4.18;;;;;;;23.76;36.03;102186.25;4999095;28;20117;-94
2022/09/22 10:34:43;;;;;;;6.55;4.00;;;;;;;23.96;34.34;102177.69;5014781;28;20042;-95
2022/09/22 10:37:14;;;;;;;5.25;3.47;;;;;;;23.44;33.66;102168.94;4999231;28;20091;-94
2022/09/22 10:39:49;;;;;;;5.10;3.28;;;;;;;23.46;33.77;102169.78;5017152;28;20026;-95
2022/09/22 10:42:39;;;;;;;6.25;3.35;;;;;;;23.85;34.41;102166.25;4998153;28;20041;-95
2022/09/22 10:45:09;;;;;;;6.00;3.60;;;;;;;23.59;34.60;102161.41;5016763;28;20033;-94
2022/09/22 10:47:55;;;;;;;7.57;3.50;;;;;;;23.57;36.08;102164.16;5016098;28;20033;-92
2022/09/22 10:50:30;;;;;;;5.07;3.35;;;;;;;24.09;34.44;102165.66;5015647;28;20118;-91
2022/09/22 10:53:33;;;;;;;4.93;2.30;;;;;;;24.87;33.83;102163.66;5016492;28;20065;-94
2022/09/22 10:56:08;;;;;;;4.50;2.70;;;;;;;25.12;32.53;102152.16;4998155;28;20470;-91
2022/09/22 10:58:45;;;;;;;6.38;2.70;;;;;;;25.21;32.27;102151.91;4998795;28;20037;-91
2022/09/22 11:01:40;;;;;;;3.88;2.33;;;;;;;25.16;30.25;102157.44;5016098;28;20029;-89
2022/09/22 11:04:20;;;;;;;4.13;2.30;;;;;;;24.69;30.84;102147.94;5016003;28;20114;-90
2022/09/22 11:13:01;;;;;;;5.38;2.60;;;;;;;23.86;31.41;102143.75;5015716;28;19963;-88
2022/09/22 11:15:47;;;;;;;4.30;2.45;;;;;;;24.14;31.55;102146.66;4998709;28;20027;-86
2022/09/22 11:18:41;;;;;;;6.80;2.55;;;;;;;24.13;30.06;102152.97;4998726;28;20081;-91
2022/09/22 11:21:26;;;;;;;3.15;2.40;;;;;;;23.99;32.61;102138.00;5014786;28;20487;-94
2022/09/22 11:24:28;;;;;;;5.65;2.40;;;;;;;24.10;32.26;102143.13;5015353;28;20029;-91
2022/09/22 11:26:58;;;;;;;4.90;2.20;;;;;;;23.68;31.60;102148.66;5015098;28;20046;-90
2022/09/22 11:29:46;;;;;;;5.78;2.30;;;;;;;23.27;32.35;102141.44;5015661;28;20037;-94
2022/09/22 11:32:36;;;;;;;3.60;2.30;;;;;;;23.54;32.83;102133.66;5015131;28;20026;-91
2022/09/22 11:35:33;;;;;;;4.28;2.30;;;;;;;23.91;32.43;102131.03;5015026;28;20030;-91
2022/09/22 11:38:17;;;;;;;3.55;2.08;;;;;;;23.72;32.04;102133.25;4985667;28;20037;-91
2022/09/22 11:41:13;;;;;;;4.38;2.10;;;;;;;23.21;32.41;102126.28;5015438;28;20112;-91
2022/09/22 11:43:39;;;;;;;4.95;2.10;;;;;;;22.78;32.84;102122.63;5015069;28;20026;-93
2022/09/22 11:46:13;;;;;;;5.68;2.50;;;;;;;22.58;32.83;102126.63;4997838;28;20084;-94
2022/09/22 11:49:05;;;;;;;5.68;2.20;;;;;;;22.60;33.54;102118.50;5015280;28;20157;-94
2022/09/22 11:52:03;;;;;;;3.92;2.20;;;;;;;22.93;33.41;102111.59;5014934;28;20454;-94
2022/09/22 11:54:48;;;;;;;4.25;2.40;;;;;;;23.42;32.67;102110.53;4980961;28;20049;-94
2022/09/22 11:57:20;;;;;;;3.33;2.33;;;;;;;23.51;31.84;102115.75;5014548;28;20133;-93
2022/09/22 11:59:54;;;;;;;5.22;2.97;;;;;;;24.09;31.97;102105.38;5014839;28;20061;-93
2022/09/22 12:02:28;;;;;;;8.43;2.80;;;;;;;24.54;32.47;102089.81;5014508;28;20512;-93